Time;durP1;ratioP1;P1;durP2;ratioP2;P2;SDS_P1;SDS_P2;PMS_P1;PMS_P2;Temp;Humidity;BMP_temperature;BMP_pressure;BME280_temperature;BME280_humidity;BME280_pressure;Samples;Min_cycle;Max_cycle;Signal;HPM_P1;HPM_P2
2023/09/28 00:01:18;;;;;;;4.40;3.08;;;16.30;99.90;;;;;;5076405;28;20036;-87
2023/09/28 00:03:45;;;;;;;6.88;3.25;;;16.20;99.90;;;;;;5076030;28;20024;-88
2023/09/28 00:06:11;;;;;;;4.18;3.08;;;16.30;99.90;;;;;;5077468;28;20154;-88
2023/09/28 00:08:37;;;;;;;4.85;3.55;;;16.30;99.90;;;;;;5075914;28;20093;-88
2023/09/28 00:11:04;;;;;;;4.93;3.35;;;16.20;99.90;;;;;;5076663;28;20509;-87
2023/09/28 00:13:29;;;;;;;6.03;3.38;;;16.30;99.90;;;;;;5077139;28;20024;-89
2023/09/28 00:15:55;;;;;;;4.15;3.35;;;16.30;99.90;;;;;;5076220;28;20029;-89
2023/09/28 00:18:21;;;;;;;5.05;3.58;;;16.20;99.90;;;;;;5076795;28;20135;-83
2023/09/28 00:20:47;;;;;;;4.28;3.70;;;16.30;99.90;;;;;;5077276;28;20029;-90
2023/09/28 00:23:13;;;;;;;5.28;3.50;;;16.30;99.90;;;;;;5076335;28;20035;-89
2023/09/28 00:25:38;;;;;;;6.53;3.38;;;16.30;99.90;;;;;;5076611;28;20037;-89
2023/09/28 00:28:05;;;;;;;5.28;3.30;;;16.20;99.90;;;;;;5077050;28;20025;-89
2023/09/28 00:30:31;;;;;;;6.28;3.15;;;16.20;99.90;;;;;;5076559;28;20028;-89
2023/09/28 00:32:57;;;;;;;5.30;3.20;;;16.20;99.90;;;;;;5077209;28;20040;-89
2023/09/28 00:35:23;;;;;;;5.22;3.45;;;16.20;99.90;;;;;;5075749;28;20127;-87
2023/09/28 00:37:49;;;;;;;4.18;3.20;;;16.20;99.90;;;;;;5075817;28;20505;-88
2023/09/28 00:40:20;;;;;;;5.43;3.55;;;16.20;99.90;;;;;;5075774;28;20492;-90
2023/09/28 00:42:50;;;;;;;6.78;3.85;;;16.20;99.90;;;;;;5076290;28;20027;-89
2023/09/28 00:45:16;;;;;;;8.40;3.72;;;16.20;99.90;;;;;;5076768;28;20028;-89
2023/09/28 00:47:45;;;;;;;6.65;3.55;;;16.20;99.90;;;;;;5075013;28;20248;-89
2023/09/28 00:50:17;;;;;;;8.55;3.90;;;16.20;99.90;;;;;;5075613;28;20039;-89
2023/09/28 00:52:54;;;;;;;4.60;3.30;;;16.20;99.90;;;;;;5075194;28;20602;-89
2023/09/28 00:55:22;;;;;;;5.90;3.33;;;16.20;99.90;;;;;;5074881;28;20036;-89
2023/09/28 00:57:48;;;;;;;4.05;3.25;;;16.10;99.90;;;;;;5076700;28;20461;-87
2023/09/28 01:00:32;;;;;;;4.32;3.25;;;16.20;99.90;;;;;;5075248;28;20035;-86
2023/09/28 01:02:59;;;;;;;4.75;3.28;;;16.20;99.90;;;;;;5075599;28;20028;-87
2023/09/28 01:05:27;;;;;;;3.53;2.88;;;16.10;99.90;;;;;;5074957;28;20089;-86
2023/09/28 01:07:55;;;;;;;5.43;3.85;;;16.10;99.90;;;;;;5075196;28;20028;-86
2023/09/28 01:10:23;;;;;;;4.03;3.38;;;16.10;99.90;;;;;;5076257;28;20088;-87
2023/09/28 01:12:50;;;;;;;3.40;2.72;;;16.10;99.90;;;;;;5075052;28;20020;-87
2023/09/28 01:15:16;;;;;;;4.30;3.13;;;16.10;99.90;;;;;;5091986;28;20029;-87
2023/09/28 01:17:42;;;;;;;5.10;2.90;;;16.20;99.90;;;;;;5074540;28;20037;-86
2023/09/28 01:20:17;;;;;;;4.22;2.95;;;16.20;99.90;;;;;;5075126;28;20507;-86
2023/09/28 01:22:43;;;;;;;4.43;2.97;;;16.20;99.90;;;;;;5074528;28;20032;-86
2023/09/28 01:25:09;;;;;;;5.88;3.22;;;16.20;99.90;;;;;;5075915;28;20036;-87
2023/09/28 01:27:35;;;;;;;6.40;3.28;;;16.20;99.90;;;;;;5075354;28;20070;-86
2023/09/28 01:30:03;;;;;;;4.25;2.80;;;16.20;99.90;;;;;;5074885;28;20130;-86
2023/09/28 01:32:29;;;;;;;4.95;3.28;;;16.20;99.90;;;;;;5073917;28;20032;-86
2023/09/28 01:34:54;;;;;;;5.25;3.00;;;16.10;99.90;;;;;;5075152;28;20033;-92
2023/09/28 01:37:29;;;;;;;6.25;3.22;;;16.10;99.90;;;;;;5091600;28;20025;-91
2023/09/28 01:39:55;;;;;;;6.22;3.10;;;16.00;99.90;;;;;;5075782;28;20028;-91
2023/09/28 01:42:21;;;;;;;5.15;3.17;;;15.90;99.90;;;;;;5074635;28;20022;-87
2023/09/28 01:44:46;;;;;;;5.22;3.13;;;15.90;99.90;;;;;;5075055;28;20029;-87
2023/09/28 01:47:12;;;;;;;8.38;3.88;;;16.00;99.90;;;;;;5075499;28;20063;-87
2023/09/28 01:49:37;;;;;;;4.13;3.00;;;16.10;99.90;;;;;;5074699;28;20028;-87
2023/09/28 01:52:03;;;;;;;5.38;3.80;;;16.20;99.90;;;;;;5075454;28;20124;-87
2023/09/28 01:54:29;;;;;;;7.40;3.53;;;16.20;99.90;;;;;;5074867;28;20037;-86
2023/09/28 01:56:54;;;;;;;5.70;3.85;;;16.20;99.90;;;;;;5074518;28;20066;-87
2023/09/28 01:59:20;;;;;;;5.43;3.90;;;16.30;99.90;;;;;;5074359;28;20029;-87
2023/09/28 02:01:45;;;;;;;5.63;4.10;;;16.30;99.90;;;;;;5073466;28;20340;-87
2023/09/28 02:04:11;;;;;;;6.85;4.10;;;16.30;99.90;;;;;;5074866;28;20032;-87
2023/09/28 02:06:36;;;;;;;4.00;3.17;;;16.30;99.90;;;;;;5073769;28;20039;-87
2023/09/28 02:09:05;;;;;;;5.15;3.45;;;16.30;99.90;;;;;;5074196;28;20032;-87
2023/09/28 02:11:31;;;;;;;6.32;4.05;;;16.20;99.90;;;;;;5074541;28;20131;-88
2023/09/28 02:13:56;;;;;;;7.93;3.88;;;16.20;99.90;;;;;;5074299;28;20445;-88
2023/09/28 02:16:22;;;;;;;7.50;3.95;;;16.20;99.90;;;;;;5075066;28;20037;-87
2023/09/28 02:18:47;;;;;;;8.75;4.05;;;16.20;99.90;;;;;;5073394;28;20043;-86
2023/09/28 02:21:14;;;;;;;6.18;3.88;;;16.30;99.90;;;;;;5073500;28;20056;-86
2023/09/28 02:23:40;;;;;;;5.82;3.90;;;16.20;99.90;;;;;;5074402;28;20020;-87
2023/09/28 02:26:06;;;;;;;6.05;3.95;;;16.20;99.90;;;;;;5090709;28;20079;-88
2023/09/28 02:28:32;;;;;;;7.72;3.97;;;16.30;99.90;;;;;;5073400;28;20021;-88
2023/09/28 02:31:06;;;;;;;4.38;3.67;;;16.20;99.90;;;;;;5073837;28;20028;-87
2023/09/28 02:33:33;;;;;;;5.97;3.80;;;16.30;99.90;;;;;;5072766;28;20052;-87
2023/09/28 02:35:58;;;;;;;8.10;4.22;;;16.30;99.90;;;;;;5073682;28;20034;-87
2023/09/28 02:38:24;;;;;;;5.45;3.90;;;16.30;99.90;;;;;;5073648;28;20036;-87
2023/09/28 02:40:50;;;;;;;8.30;4.40;;;16.30;99.90;;;;;;5073062;28;20461;-90
2023/09/28 02:43:15;;;;;;;6.95;4.63;;;16.30;99.90;;;;;;5074107;28;20043;-91
2023/09/28 02:45:42;;;;;;;8.70;4.65;;;16.30;99.90;;;;;;5083882;28;20032;-90
2023/09/28 02:48:08;;;;;;;5.47;4.20;;;16.30;99.90;;;;;;5055532;28;20028;-86
2023/09/28 02:50:34;;;;;;;9.18;4.75;;;16.30;99.90;;;;;;5052822;28;20045;-86
2023/09/28 02:53:00;;;;;;;7.57;4.60;;;16.30;99.90;;;;;;5070259;28;20029;-88
2023/09/28 02:55:25;;;;;;;7.55;4.93;;;16.40;99.90;;;;;;5053328;28;20466;-88
2023/09/28 02:57:51;;;;;;;7.70;4.22;;;16.30;99.90;;;;;;5053238;28;20029;-92
2023/09/28 03:02:50;;;;;;;;;;;16.30;99.90;;;;;;5094697;28;20107;-85
2023/09/28 03:05:19;;;;;;;6.82;3.92;;;16.30;99.90;;;;;;5094313;28;19926;-89
2023/09/28 03:07:45;;;;;;;6.00;4.40;;;16.30;99.90;;;;;;5093799;28;20020;-89
2023/09/28 03:10:11;;;;;;;7.10;3.97;;;16.30;99.90;;;;;;5094414;28;20032;-90
2023/09/28 03:12:37;;;;;;;5.47;4.38;;;16.30;99.90;;;;;;5092484;28;20024;-89
2023/09/28 03:15:07;;;;;;;6.28;3.95;;;16.30;99.90;;;;;;5093295;28;20035;-90
2023/09/28 03:17:34;;;;;;;6.50;4.60;;;16.30;99.90;;;;;;5093125;28;20540;-89
2023/09/28 03:20:00;;;;;;;7.35;4.45;;;16.30;99.90;;;;;;5094109;28;20017;-86
2023/09/28 03:22:26;;;;;;;7.28;4.25;;;16.30;99.90;;;;;;5093384;28;20035;-87
2023/09/28 03:24:52;;;;;;;5.88;4.20;;;16.30;99.90;;;;;;5092470;28;20040;-86
2023/09/28 03:27:17;;;;;;;5.63;3.88;;;16.40;99.90;;;;;;5094242;28;20024;-87
2023/09/28 03:29:43;;;;;;;6.07;4.00;;;16.40;99.90;;;;;;5093753;28;20061;-86
2023/09/28 03:32:08;;;;;;;7.38;4.40;;;16.40;99.90;;;;;;5093170;28;20051;-86
2023/09/28 03:34:34;;;;;;;5.43;4.00;;;16.30;99.90;;;;;;5093842;28;20044;-86
2023/09/28 03:37:00;;;;;;;5.85;4.00;;;16.30;99.90;;;;;;5094189;28;20032;-86
2023/09/28 03:39:26;;;;;;;7.47;4.28;;;16.30;99.90;;;;;;5093260;28;20465;-87
2023/09/28 03:41:51;;;;;;;5.38;3.88;;;16.30;99.90;;;;;;5093396;28;20218;-86
2023/09/28 03:44:17;;;;;;;6.68;4.05;;;16.30;99.90;;;;;;5092909;28;20449;-87
2023/09/28 03:46:43;;;;;;;5.57;3.95;;;16.30;99.90;;;;;;5093428;28;20097;-87
2023/09/28 03:49:08;;;;;;;6.18;4.25;;;16.30;99.90;;;;;;5093230;28;20021;-87
2023/09/28 03:51:34;;;;;;;8.32;3.92;;;16.30;99.90;;;;;;5092266;28;20034;-84
2023/09/28 03:53:59;;;;;;;6.30;3.97;;;16.30;99.90;;;;;;5093015;28;20028;-86
2023/09/28 03:56:25;;;;;;;6.30;4.05;;;16.30;99.90;;;;;;5092367;28;20473;-85
2023/09/28 03:58:50;;;;;;;7.40;3.80;;;16.30;99.90;;;;;;5093700;28;20032;-86
2023/09/28 04:01:16;;;;;;;5.70;3.63;;;16.30;99.90;;;;;;5093814;28;20024;-85
2023/09/28 04:03:41;;;;;;;7.45;3.70;;;16.20;99.90;;;;;;5092175;28;20036;-85
2023/09/28 04:06:08;;;;;;;8.45;3.30;;;16.20;99.90;;;;;;5093639;28;20036;-86
2023/09/28 04:08:34;;;;;;;5.47;3.80;;;16.10;99.90;;;;;;5093552;28;20020;-80
2023/09/28 04:10:59;;;;;;;7.15;3.83;;;16.10;99.90;;;;;;5093354;28;20024;-86
2023/09/28 04:13:25;;;;;;;5.00;3.75;;;16.10;99.90;;;;;;5093739;28;20036;-86
2023/09/28 04:15:51;;;;;;;5.53;4.18;;;16.10;99.90;;;;;;5056037;28;20037;-86
2023/09/28 04:18:17;;;;;;;5.13;3.78;;;16.10;99.90;;;;;;5052640;28;20033;-86
2023/09/28 04:20:43;;;;;;;6.55;3.38;;;16.10;99.90;;;;;;5053159;28;20452;-86
2023/09/28 04:23:08;;;;;;;5.82;3.35;;;16.10;99.90;;;;;;5052897;28;20120;-91
2023/09/28 04:25:35;;;;;;;4.40;3.38;;;16.10;99.90;;;;;;5053597;28;20125;-91
2023/09/28 04:28:01;;;;;;;6.28;3.70;;;16.00;99.90;;;;;;5053495;28;20029;-91
2023/09/28 04:30:27;;;;;;;5.60;3.83;;;16.00;99.90;;;;;;5053058;28;20028;-90
2023/09/28 04:32:54;;;;;;;5.28;3.92;;;16.00;99.90;;;;;;5055257;28;20045;-91
2023/09/28 04:35:20;;;;;;;6.53;3.97;;;16.00;99.90;;;;;;5055976;28;20390;-91
2023/09/28 04:37:47;;;;;;;6.32;3.80;;;16.00;99.90;;;;;;5055132;28;20029;-90
2023/09/28 04:40:13;;;;;;;5.65;3.65;;;16.00;99.90;;;;;;5057247;28;20092;-91
2023/09/28 04:42:40;;;;;;;6.18;3.72;;;16.00;99.90;;;;;;5055059;28;20478;-90
2023/09/28 04:45:06;;;;;;;7.03;3.88;;;16.00;99.90;;;;;;5056024;28;20086;-90
2023/09/28 04:47:32;;;;;;;4.70;3.40;;;16.00;99.90;;;;;;5056720;28;20029;-89
2023/09/28 04:49:58;;;;;;;7.75;3.97;;;15.90;99.90;;;;;;5056234;28;20031;-90
2023/09/28 04:52:24;;;;;;;4.93;3.45;;;15.90;99.90;;;;;;5056744;28;20110;-90
2023/09/28 04:54:51;;;;;;;5.68;3.47;;;15.90;99.90;;;;;;5071684;28;20025;-89
2023/09/28 04:57:19;;;;;;;3.92;2.92;;;15.80;99.90;;;;;;5055897;28;20092;-85
2023/09/28 04:59:45;;;;;;;5.75;3.28;;;15.80;99.90;;;;;;5071681;28;20036;-88
2023/09/28 05:02:11;;;;;;;4.93;3.25;;;15.70;99.90;;;;;;5055556;28;20123;-88
2023/09/28 05:04:37;;;;;;;5.50;3.85;;;15.60;99.90;;;;;;5055538;28;20120;-88
2023/09/28 05:07:04;;;;;;;4.43;3.10;;;15.60;99.90;;;;;;5055518;28;20087;-87
2023/09/28 05:09:30;;;;;;;4.32;3.20;;;15.50;99.90;;;;;;5055227;28;20053;-90
2023/09/28 05:11:59;;;;;;;7.00;3.15;;;15.50;99.90;;;;;;5054660;28;20031;-90
2023/09/28 05:14:25;;;;;;;5.20;3.55;;;15.60;99.90;;;;;;5055438;28;20029;-90
2023/09/28 05:16:51;;;;;;;4.22;3.10;;;15.60;99.90;;;;;;5054912;28;20485;-90
2023/09/28 05:19:17;;;;;;;5.40;3.35;;;15.50;99.90;;;;;;5055321;28;20083;-90
2023/09/28 05:21:42;;;;;;;5.70;3.15;;;15.50;99.90;;;;;;5055858;28;20458;-90
2023/09/28 05:24:08;;;;;;;6.50;3.88;;;15.50;99.90;;;;;;5071932;28;20025;-90
2023/09/28 05:26:34;;;;;;;6.55;3.35;;;15.60;99.90;;;;;;5055358;28;20047;-90
2023/09/28 05:28:59;;;;;;;7.45;3.33;;;15.60;99.90;;;;;;5054729;28;20025;-90
2023/09/28 05:31:25;;;;;;;7.55;3.45;;;15.60;99.90;;;;;;5056016;28;20055;-90
2023/09/28 05:33:51;;;;;;;5.80;3.70;;;15.70;99.90;;;;;;5054205;28;20192;-90
2023/09/28 05:36:17;;;;;;;4.30;3.40;;;15.70;99.90;;;;;;5055836;28;20116;-91
2023/09/28 05:38:43;;;;;;;6.15;3.50;;;15.70;99.90;;;;;;5054481;28;20032;-91
2023/09/28 05:41:08;;;;;;;4.57;3.15;;;15.60;99.90;;;;;;5055600;28;20061;-90
2023/09/28 05:43:34;;;;;;;5.68;3.38;;;15.60;99.90;;;;;;5056234;28;20017;-90
2023/09/28 05:45:59;;;;;;;5.38;3.40;;;15.60;99.90;;;;;;5054310;28;20520;-89
2023/09/28 05:48:25;;;;;;;4.60;3.00;;;15.60;99.90;;;;;;5054661;28;20025;-89
2023/09/28 05:50:50;;;;;;;5.55;3.60;;;15.60;99.90;;;;;;5054111;28;20067;-87
2023/09/28 05:53:16;;;;;;;8.35;3.80;;;15.60;99.90;;;;;;5054505;28;20523;-90
2023/09/28 05:55:41;;;;;;;6.57;3.55;;;15.60;99.90;;;;;;5053824;28;20047;-89
2023/09/28 05:58:07;;;;;;;8.75;4.05;;;15.60;99.90;;;;;;5055332;28;20044;-85
2023/09/28 06:00:33;;;;;;;11.02;4.53;;;15.60;99.90;;;;;;5054554;28;20033;-85
2023/09/28 06:02:59;;;;;;;5.20;3.38;;;15.60;99.90;;;;;;5054148;28;20376;-85
2023/09/28 06:05:24;;;;;;;8.07;4.30;;;15.60;99.90;;;;;;5070696;28;20032;-85
2023/09/28 06:07:50;;;;;;;6.97;3.75;;;15.60;99.90;;;;;;5053763;28;20098;-85
2023/09/28 06:10:16;;;;;;;5.80;3.53;;;15.60;99.90;;;;;;5054040;28;20489;-86
2023/09/28 06:12:41;;;;;;;6.35;3.55;;;15.50;99.90;;;;;;5053473;28;20021;-81
2023/09/28 06:15:09;;;;;;;7.63;3.33;;;15.50;99.90;;;;;;5054088;28;20461;-85
2023/09/28 06:17:34;;;;;;;5.97;3.35;;;15.50;99.90;;;;;;5053582;28;20033;-85
2023/09/28 06:20:00;;;;;;;5.22;3.30;;;15.50;99.90;;;;;;5053359;28;20059;-85
2023/09/28 06:22:25;;;;;;;8.68;3.40;;;15.50;99.90;;;;;;5053942;28;20115;-85
2023/09/28 06:24:51;;;;;;;6.70;3.60;;;15.40;99.90;;;;;;5054375;28;20032;-85
2023/09/28 06:27:17;;;;;;;7.20;3.70;;;15.40;99.90;;;;;;5053872;28;20029;-88
2023/09/28 06:29:43;;;;;;;11.68;3.80;;;15.40;99.90;;;;;;5054305;28;20032;-86
2023/09/28 06:32:09;;;;;;;8.27;3.85;;;15.40;99.90;;;;;;5087625;28;20024;-85
2023/09/28 06:34:34;;;;;;;7.78;3.60;;;15.50;99.90;;;;;;5093545;28;20051;-88
2023/09/28 06:37:00;;;;;;;9.73;4.30;;;15.50;99.90;;;;;;5093133;28;20028;-90
2023/09/28 06:39:26;;;;;;;8.35;3.38;;;15.50;99.90;;;;;;5095185;28;20024;-88
2023/09/28 06:41:51;;;;;;;10.23;4.00;;;15.50;99.90;;;;;;5081580;28;20123;-88
2023/09/28 06:44:17;;;;;;;7.00;3.50;;;15.50;99.90;;;;;;5074260;28;20111;-89
2023/09/28 06:46:44;;;;;;;5.65;3.67;;;15.60;99.90;;;;;;5074774;28;20032;-89
2023/09/28 06:49:11;;;;;;;10.63;3.38;;;15.60;99.90;;;;;;5075678;28;20051;-85
2023/09/28 06:51:37;;;;;;;6.03;3.30;;;15.60;99.90;;;;;;5071967;28;20108;-87
2023/09/28 06:54:03;;;;;;;4.13;2.88;;;15.70;99.90;;;;;;5082116;28;20484;-86
2023/09/28 06:56:28;;;;;;;6.85;4.00;;;15.70;99.90;;;;;;5076260;28;20120;-88
2023/09/28 06:58:54;;;;;;;5.10;3.42;;;15.80;99.90;;;;;;5072832;28;20465;-88
2023/09/28 07:01:21;;;;;;;5.53;3.42;;;15.90;99.90;;;;;;5075935;28;20022;-92
2023/09/28 07:03:52;;;;;;;11.35;3.10;;;15.90;99.90;;;;;;5093326;28;20031;-85
2023/09/28 07:06:18;;;;;;;9.60;2.90;;;15.90;99.90;;;;;;5094497;28;20073;-88
2023/09/28 07:08:44;;;;;;;6.35;3.75;;;16.00;99.90;;;;;;5110220;28;20035;-87
2023/09/28 07:11:10;;;;;;;16.20;9.50;;;16.00;99.90;;;;;;5083760;28;20029;-89
2023/09/28 07:13:37;;;;;;;22.70;11.82;;;16.00;99.90;;;;;;5075870;28;20116;-94
2023/09/28 07:16:02;;;;;;;17.90;8.05;;;16.10;99.90;;;;;;5093867;28;20031;-93
2023/09/28 07:18:28;;;;;;;5.78;4.30;;;16.10;99.90;;;;;;5094484;28;20028;-89
2023/09/28 07:20:55;;;;;;;6.68;4.13;;;16.20;99.90;;;;;;5101560;28;20079;-83
2023/09/28 07:23:21;;;;;;;9.23;3.58;;;16.30;99.90;;;;;;5067839;28;20024;-83
2023/09/28 07:25:48;;;;;;;6.40;3.40;;;16.40;99.90;;;;;;5056222;28;20468;-85
2023/09/28 07:28:15;;;;;;;6.60;3.60;;;16.50;99.90;;;;;;5062422;28;20094;-87
2023/09/28 07:30:41;;;;;;;6.40;3.72;;;16.50;99.90;;;;;;5064783;28;20083;-84
2023/09/28 07:33:07;;;;;;;6.25;3.47;;;16.60;99.90;;;;;;5064106;28;20052;-83
2023/09/28 07:35:33;;;;;;;7.18;3.20;;;16.60;99.90;;;;;;5072367;28;20025;-85
2023/09/28 07:37:59;;;;;;;5.93;3.35;;;16.60;99.90;;;;;;5086796;28;20033;-85
2023/09/28 07:40:27;;;;;;;5.90;3.33;;;16.70;99.90;;;;;;5066081;28;20028;-82
2023/09/28 07:42:52;;;;;;;7.00;3.25;;;16.70;99.90;;;;;;5078903;28;20060;-81
2023/09/28 07:45:18;;;;;;;5.20;3.22;;;16.80;99.90;;;;;;5075068;28;20106;-82
2023/09/28 07:47:44;;;;;;;8.93;4.30;;;16.80;99.90;;;;;;5072520;28;20028;-87
2023/09/28 07:50:14;;;;;;;8.40;4.05;;;16.80;99.90;;;;;;5056413;28;20094;-91
2023/09/28 07:52:42;;;;;;;8.63;4.10;;;16.90;99.90;;;;;;5072331;28;20082;-86
2023/09/28 07:55:08;;;;;;;7.78;3.70;;;17.00;99.90;;;;;;5071781;28;20043;-85
2023/09/28 07:57:33;;;;;;;6.35;3.28;;;17.10;99.90;;;;;;5071891;28;20123;-86
2023/09/28 07:59:59;;;;;;;6.65;3.22;;;17.10;99.90;;;;;;5070890;28;20048;-85
2023/09/28 08:02:25;;;;;;;7.15;3.22;;;17.20;99.90;;;;;;5058060;28;20028;-84
2023/09/28 08:04:53;;;;;;;6.43;3.10;;;17.20;99.90;;;;;;5073030;28;20082;-84
2023/09/28 08:07:19;;;;;;;6.40;2.85;;;17.30;99.90;;;;;;5075711;28;20040;-87
2023/09/28 08:09:44;;;;;;;4.32;2.97;;;17.40;99.90;;;;;;5077099;28;20047;-85
2023/09/28 08:12:10;;;;;;;6.38;2.97;;;17.40;99.90;;;;;;5071945;28;20021;-85
2023/09/28 08:14:36;;;;;;;5.38;3.13;;;17.40;99.90;;;;;;5063121;28;20120;-85
2023/09/28 08:17:01;;;;;;;6.53;3.20;;;17.50;99.90;;;;;;5081199;28;20457;-86
2023/09/28 08:19:27;;;;;;;3.83;2.55;;;17.50;99.90;;;;;;5082891;28;20046;-84
2023/09/28 08:21:53;;;;;;;5.90;2.42;;;17.60;99.90;;;;;;5087140;28;20023;-81
2023/09/28 08:24:18;;;;;;;5.65;2.78;;;17.60;99.90;;;;;;5099799;28;20481;-81
2023/09/28 08:26:44;;;;;;;5.97;2.78;;;17.70;99.90;;;;;;5063712;28;20069;-81
2023/09/28 08:29:09;;;;;;;5.55;2.72;;;17.80;99.90;;;;;;5074933;28;20040;-81
2023/09/28 08:31:35;;;;;;;8.70;2.90;;;17.80;99.90;;;;;;5075622;28;20029;-81
2023/09/28 08:34:02;;;;;;;5.45;2.70;;;17.80;99.90;;;;;;5076062;28;20094;-81
2023/09/28 08:36:29;;;;;;;4.68;2.83;;;17.90;99.90;;;;;;5075417;28;20032;-81
2023/09/28 08:38:55;;;;;;;3.97;2.63;;;18.00;99.90;;;;;;5076133;28;20473;-81
2023/09/28 08:41:29;;;;;;;5.07;2.72;;;18.00;99.90;;;;;;5062170;28;20035;-90
2023/09/28 08:44:03;;;;;;;4.13;2.60;;;18.10;99.90;;;;;;5085270;28;20059;-89
2023/09/28 08:46:32;;;;;;;5.47;2.92;;;18.20;99.90;;;;;;5075912;28;20036;-87
2023/09/28 08:49:05;;;;;;;4.95;2.90;;;18.30;99.90;;;;;;5082607;28;20077;-87
2023/09/28 08:51:32;;;;;;;7.32;3.28;;;18.30;99.90;;;;;;5075175;28;20091;-89
2023/09/28 08:54:04;;;;;;;8.18;3.10;;;18.30;99.90;;;;;;5074382;28;20029;-88
2023/09/28 08:56:33;;;;;;;8.95;3.45;;;18.40;99.90;;;;;;5069657;28;20065;-88
2023/09/28 08:58:59;;;;;;;6.88;2.83;;;18.40;99.90;;;;;;5064514;28;20036;-88
2023/09/28 09:01:28;;;;;;;8.77;2.85;;;18.50;99.90;;;;;;5062041;28;20057;-86
2023/09/28 09:03:55;;;;;;;8.32;2.63;;;18.60;99.90;;;;;;5073192;28;20027;-88
2023/09/28 09:06:22;;;;;;;5.05;3.08;;;18.60;99.90;;;;;;5074968;28;20035;-88
2023/09/28 09:08:49;;;;;;;6.45;2.88;;;18.60;99.90;;;;;;5074961;28;20040;-82
2023/09/28 09:11:19;;;;;;;4.72;2.80;;;18.70;99.90;;;;;;5075962;28;20517;-90
2023/09/28 09:13:53;;;;;;;7.65;3.10;;;18.80;99.90;;;;;;5072750;28;20537;-89
2023/09/28 09:16:25;;;;;;;6.63;3.10;;;18.90;99.90;;;;;;5063626;28;20021;-90
2023/09/28 09:18:54;;;;;;;5.95;2.88;;;19.00;99.90;;;;;;5065289;28;20033;-87
2023/09/28 09:21:21;;;;;;;6.13;2.88;;;19.00;99.90;;;;;;5068763;28;20165;-90
2023/09/28 09:24:13;;;;;;;7.82;3.13;;;19.10;99.90;;;;;;5074963;28;20028;-89
2023/09/28 09:26:47;;;;;;;6.43;2.80;;;19.20;99.90;;;;;;5067318;28;20128;-88
2023/09/28 09:29:15;;;;;;;9.20;3.33;;;19.30;99.90;;;;;;5067332;28;20094;-87
2023/09/28 09:31:42;;;;;;;4.32;2.35;;;19.40;99.90;;;;;;5058668;28;20469;-86
2023/09/28 09:34:19;;;;;;;7.45;3.10;;;19.50;99.90;;;;;;5074812;28;20051;-84
2023/09/28 09:36:55;;;;;;;6.07;2.75;;;19.50;99.90;;;;;;5074542;28;20028;-85
2023/09/28 09:39:26;;;;;;;5.60;2.95;;;19.60;99.90;;;;;;5074616;28;20032;-88
2023/09/28 09:41:55;;;;;;;4.20;2.20;;;19.60;99.90;;;;;;5074308;28;20031;-85
2023/09/28 09:44:22;;;;;;;6.82;2.60;;;19.70;99.90;;;;;;5074446;28;20021;-84
2023/09/28 09:46:55;;;;;;;7.55;2.42;;;19.80;99.90;;;;;;5075101;28;20119;-85
2023/09/28 09:49:24;;;;;;;6.22;2.65;;;19.80;99.90;;;;;;5065429;28;20460;-85
2023/09/28 09:51:50;;;;;;;4.60;2.45;;;19.90;99.90;;;;;;5067124;28;20032;-84
2023/09/28 09:54:17;;;;;;;4.22;2.30;;;19.90;99.90;;;;;;5070566;28;20029;-85
2023/09/28 09:56:46;;;;;;;5.78;2.60;;;20.00;99.90;;;;;;5071344;28;20044;-84
2023/09/28 09:59:22;;;;;;;5.60;2.38;;;20.10;99.90;;;;;;5058583;28;20036;-84
2023/09/28 10:01:53;;;;;;;5.50;2.78;;;20.10;99.90;;;;;;5075458;28;20105;-85
2023/09/28 10:04:21;;;;;;;6.03;2.15;;;20.20;99.90;;;;;;5072007;28;20056;-87
2023/09/28 10:06:51;;;;;;;5.18;2.80;;;20.30;99.90;;;;;;5071033;28;20043;-85
2023/09/28 10:09:18;;;;;;;6.28;2.30;;;20.40;99.90;;;;;;5070397;28;20028;-85
2023/09/28 10:11:49;;;;;;;7.38;2.35;;;20.40;99.90;;;;;;5072330;28;20024;-85
2023/09/28 10:14:16;;;;;;;6.15;2.60;;;20.50;99.90;;;;;;5070060;28;20036;-86
2023/09/28 10:16:44;;;;;;;5.18;2.50;;;20.60;99.90;;;;;;5071693;28;20530;-84
2023/09/28 10:19:15;;;;;;;5.35;2.22;;;20.70;99.90;;;;;;5069596;28;20495;-83
2023/09/28 10:21:40;;;;;;;4.90;2.15;;;20.80;99.90;;;;;;5070541;28;20071;-79
2023/09/28 10:24:14;;;;;;;6.30;2.58;;;20.80;99.90;;;;;;5069891;28;20052;-82
2023/09/28 10:26:48;;;;;;;6.35;2.42;;;20.90;99.90;;;;;;5071590;28;20066;-85
2023/09/28 10:29:19;;;;;;;8.13;2.30;;;20.90;99.90;;;;;;5082866;28;20115;-82
2023/09/28 10:31:46;;;;;;;;;;;20.90;99.90;;;;;;5070688;28;20024;-82
2023/09/28 10:34:20;;;;;;;5.20;2.08;;;21.00;99.90;;;;;;5069695;28;20422;-81
2023/09/28 10:37:05;;;;;;;5.15;2.20;;;21.00;99.90;;;;;;5071856;28;20029;-83
2023/09/28 10:39:31;;;;;;;5.95;2.42;;;21.00;99.90;;;;;;5070240;28;20047;-84
2023/09/28 10:42:04;;;;;;;4.60;2.13;;;21.00;99.90;;;;;;5069779;28;20027;-83
2023/09/28 10:44:32;;;;;;;5.88;2.53;;;21.10;99.90;;;;;;5068804;28;20029;-83
2023/09/28 10:46:58;;;;;;;2.88;2.00;;;21.20;99.90;;;;;;5071263;28;20028;-84
2023/09/28 10:49:24;;;;;;;7.13;2.60;;;21.20;99.90;;;;;;5069984;28;20091;-84
2023/09/28 10:51:54;;;;;;;5.68;2.10;;;21.30;99.90;;;;;;5069418;28;20052;-84
2023/09/28 10:54:21;;;;;;;10.02;2.65;;;21.30;99.90;;;;;;5071419;28;20024;-84
2023/09/28 10:56:48;;;;;;;5.90;2.78;;;21.30;99.90;;;;;;5062368;28;20028;-82
2023/09/28 10:59:15;;;;;;;5.72;2.80;;;21.40;99.90;;;;;;5077650;28;20450;-87
2023/09/28 11:01:41;;;;;;;3.65;2.20;;;21.40;99.90;;;;;;5070053;28;20020;-85
2023/09/28 11:04:08;;;;;;;3.80;2.10;;;21.50;99.90;;;;;;5069798;28;20036;-86
2023/09/28 11:06:35;;;;;;;3.85;1.80;;;21.60;99.90;;;;;;5070622;28;20031;-87
2023/09/28 11:09:01;;;;;;;4.45;2.22;;;21.70;99.90;;;;;;5077080;28;20530;-86
2023/09/28 11:11:28;;;;;;;19.50;11.52;;;21.70;99.80;;;;;;5070890;28;20468;-86
2023/09/28 11:14:00;;;;;;;7.45;2.70;;;21.70;99.50;;;;;;5069958;28;20020;-84
2023/09/28 11:16:26;;;;;;;6.32;2.80;;;21.80;99.90;;;;;;5076924;28;20127;-82
2023/09/28 11:18:56;;;;;;;3.55;2.10;;;21.70;99.90;;;;;;5069001;28;20131;-83
2023/09/28 11:21:22;;;;;;;6.53;2.20;;;21.80;99.90;;;;;;5069687;28;20023;-82
2023/09/28 11:23:50;;;;;;;4.60;2.35;;;21.80;99.90;;;;;;5068424;28;20024;-86
2023/09/28 11:26:16;;;;;;;4.68;2.85;;;21.90;99.60;;;;;;5070250;28;20045;-81
2023/09/28 11:28:42;;;;;;;5.30;2.33;;;22.00;99.70;;;;;;5060998;28;20027;-82
2023/09/28 11:31:12;;;;;;;4.68;2.15;;;22.10;99.20;;;;;;5070669;28;20029;-83
2023/09/28 11:33:39;;;;;;;5.68;2.70;;;22.20;98.70;;;;;;5085886;28;20045;-85
2023/09/28 11:36:06;;;;;;;4.72;2.00;;;22.40;98.90;;;;;;5070571;28;20711;-83
2023/09/28 11:38:32;;;;;;;6.38;2.30;;;22.40;98.90;;;;;;5070646;28;20039;-83
2023/09/28 11:40:58;;;;;;;4.88;2.03;;;22.40;98.50;;;;;;5074833;28;20032;-83
2023/09/28 11:43:24;;;;;;;3.08;1.70;;;22.50;98.70;;;;;;5073790;28;20025;-84
2023/09/28 11:45:49;;;;;;;3.90;2.20;;;22.50;98.60;;;;;;5073190;28;20045;-83
2023/09/28 11:48:22;;;;;;;3.63;1.83;;;22.60;98.50;;;;;;5068536;28;20024;-83
2023/09/28 11:50:48;;;;;;;3.63;2.15;;;22.60;97.90;;;;;;5072806;28;20111;-84
2023/09/28 11:53:17;;;;;;;4.15;2.10;;;22.80;96.90;;;;;;5072200;28;20115;-83
2023/09/28 11:55:47;;;;;;;4.63;2.10;;;23.00;96.40;;;;;;5077431;28;20047;-83
2023/09/28 11:58:20;;;;;;;7.35;2.00;;;23.20;96.60;;;;;;5085625;28;20029;-83
2023/09/28 12:00:46;;;;;;;4.95;1.77;;;23.40;95.40;;;;;;5074143;28;20423;-83
2023/09/28 12:03:13;;;;;;;5.32;2.17;;;23.50;95.40;;;;;;5069783;28;20028;-81
2023/09/28 12:05:40;;;;;;;4.65;2.03;;;23.60;95.30;;;;;;5073402;28;20032;-81
2023/09/28 12:08:07;;;;;;;6.70;2.05;;;23.70;95.40;;;;;;5064311;28;20029;-82
2023/09/28 12:10:32;;;;;;;3.72;2.10;;;24.00;94.30;;;;;;5079124;28;20029;-82
2023/09/28 12:12:58;;;;;;;7.00;2.15;;;24.10;94.10;;;;;;5072717;28;20065;-82
2023/09/28 12:15:25;;;;;;;5.65;1.75;;;24.30;94.00;;;;;;5087443;28;20056;-81
2023/09/28 12:17:50;;;;;;;6.47;2.10;;;24.30;94.10;;;;;;5080144;28;20462;-81
2023/09/28 12:20:16;;;;;;;7.03;2.10;;;24.40;94.20;;;;;;5070619;28;20024;-84
2023/09/28 12:22:45;;;;;;;6.38;2.30;;;24.50;93.70;;;;;;5057679;28;20155;-81
2023/09/28 12:25:13;;;;;;;6.43;2.10;;;24.60;93.60;;;;;;5060106;28;20043;-84
2023/09/28 12:27:39;;;;;;;3.70;2.05;;;24.80;93.50;;;;;;5073602;28;20109;-80
2023/09/28 12:30:06;;;;;;;4.00;1.77;;;24.90;93.80;;;;;;5073838;28;20461;-82
2023/09/28 12:32:32;;;;;;;2.78;1.77;;;25.20;92.80;;;;;;5061206;28;20044;-80
2023/09/28 12:35:01;;;;;;;5.20;1.83;;;25.30;92.10;;;;;;5073096;28;20028;-79
2023/09/28 12:37:27;;;;;;;5.57;1.98;;;25.40;91.60;;;;;;5065491;28;20371;-80
2023/09/28 12:39:53;;;;;;;3.58;1.90;;;25.40;91.20;;;;;;5073151;28;20427;-80
2023/09/28 12:42:25;;;;;;;5.38;1.88;;;25.60;90.90;;;;;;5067619;28;20028;-79
2023/09/28 12:44:51;;;;;;;4.82;2.08;;;25.60;90.80;;;;;;5072617;28;20123;-83
2023/09/28 12:47:20;;;;;;;3.15;1.90;;;25.70;90.20;;;;;;5085414;28;20028;-83
2023/09/28 12:49:47;;;;;;;5.43;2.00;;;25.90;90.50;;;;;;5066169;28;20036;-83